createdAt,value
2023-04-21T00:00:29.687Z,1012.39
2023-04-21T00:01:29.687Z,1012.35
2023-04-21T00:02:29.757Z,1012.38
2023-04-21T00:03:29.870Z,1012.39
2023-04-21T00:04:29.953Z,1012.37
2023-04-21T00:05:29.968Z,1012.38
2023-04-21T00:06:29.621Z,1012.38
2023-04-21T00:07:29.604Z,1012.37
2023-04-21T00:08:29.593Z,1012.36
2023-04-21T00:09:29.626Z,1012.37
2023-04-21T00:10:29.580Z,1012.38
2023-04-21T00:11:29.563Z,1012.33
2023-04-21T00:12:29.542Z,1012.36
2023-04-21T00:13:29.531Z,1012.37
2023-04-21T00:14:29.556Z,1012.38
2023-04-21T00:15:29.521Z,1012.37
2023-04-21T00:16:29.534Z,1012.36
2023-04-21T00:17:29.572Z,1012.33
2023-04-21T00:18:29.470Z,1012.25
2023-04-21T00:19:29.503Z,1012.28
2023-04-21T00:20:29.473Z,1012.32
2023-04-21T00:21:29.480Z,1012.30
2023-04-21T00:22:29.423Z,1012.30
2023-04-21T00:23:29.425Z,1012.26
2023-04-21T00:24:29.447Z,1012.30
2023-04-21T00:25:29.454Z,1012.30
2023-04-21T00:26:29.408Z,1012.32
2023-04-21T00:27:29.383Z,1012.32
2023-04-21T00:28:29.376Z,1012.28
2023-04-21T00:29:29.349Z,1012.27
2023-04-21T00:30:29.440Z,1012.32
2023-04-21T00:31:29.395Z,1012.30
2023-04-21T00:32:29.330Z,1012.30
2023-04-21T00:33:29.312Z,1012.26
2023-04-21T00:34:29.304Z,1012.22
2023-04-21T00:35:29.347Z,1012.23
2023-04-21T00:36:29.284Z,1012.27
2023-04-21T00:37:29.272Z,1012.22
2023-04-21T00:38:29.276Z,1012.23
2023-04-21T00:39:29.264Z,1012.23
2023-04-21T00:40:29.267Z,1012.27
2023-04-21T00:41:29.232Z,1012.25
2023-04-21T00:42:29.202Z,1012.25
2023-04-21T00:43:29.212Z,1012.24
2023-04-21T00:44:29.196Z,1012.28
2023-04-21T00:45:29.214Z,1012.24
2023-04-21T00:46:29.193Z,1012.29
2023-04-21T00:47:29.230Z,1012.21
2023-04-21T00:48:29.135Z,1012.27
2023-04-21T00:49:29.141Z,1012.23
2023-04-21T00:50:29.148Z,1012.19
2023-04-21T00:51:29.098Z,1012.17
2023-04-21T00:52:29.101Z,1012.21
2023-04-21T00:53:29.097Z,1012.20
2023-04-21T00:54:29.068Z,1012.21
2023-04-21T00:55:29.097Z,1012.24
2023-04-21T00:56:29.047Z,1012.21
2023-04-21T00:57:29.037Z,1012.20
2023-04-21T00:58:29.028Z,1012.21
2023-04-21T00:59:29.027Z,1012.19
2023-04-21T01:00:29.161Z,1012.23
2023-04-21T01:01:29.037Z,1012.21
2023-04-21T01:02:29.144Z,1012.23
2023-04-21T01:03:29.135Z,1012.25
2023-04-21T01:04:28.956Z,1012.25
2023-04-21T01:05:28.999Z,1012.22
2023-04-21T01:06:28.964Z,1012.21
2023-04-21T01:07:28.959Z,1012.22
2023-04-21T01:08:51.505Z,1012.16
2023-04-21T01:09:28.908Z,1012.21
2023-04-21T01:10:28.938Z,1012.15
2023-04-21T01:11:28.892Z,1012.20
2023-04-21T01:12:28.912Z,1012.12
2023-04-21T01:13:28.865Z,1012.16
2023-04-21T01:14:28.848Z,1012.14
2023-04-21T01:15:28.839Z,1012.14
2023-04-21T01:16:28.895Z,1012.14
2023-04-21T01:17:28.901Z,1012.17
2023-04-21T01:18:28.811Z,1012.12
2023-04-21T01:19:28.775Z,1012.10
2023-04-21T01:20:28.777Z,1012.10
2023-04-21T01:21:28.792Z,1012.09
2023-04-21T01:22:28.808Z,1012.02
2023-04-21T01:23:28.738Z,1012.11
2023-04-21T01:24:28.726Z,1012.10
2023-04-21T01:25:28.715Z,1012.05
2023-04-21T01:26:28.719Z,1012.03
2023-04-21T01:27:28.685Z,1012.06
2023-04-21T01:28:28.734Z,1012.03
2023-04-21T01:29:28.672Z,1012.03
2023-04-21T01:30:28.672Z,1012.02
2023-04-21T01:31:28.696Z,1012.01
2023-04-21T01:32:28.717Z,1011.97
2023-04-21T01:33:28.679Z,1011.98
2023-04-21T01:34:28.665Z,1011.98
2023-04-21T01:35:28.605Z,1011.92
2023-04-21T01:36:28.650Z,1011.93
2023-04-21T01:37:28.595Z,1012.00
2023-04-21T01:38:28.630Z,1011.97
2023-04-21T01:39:28.570Z,1012.02
2023-04-21T01:40:28.558Z,1011.92
2023-04-21T01:41:28.561Z,1011.96
2023-04-21T01:42:28.583Z,1011.89
2023-04-21T01:43:28.564Z,1011.90
2023-04-21T01:44:28.506Z,1011.94
2023-04-21T01:45:28.513Z,1011.95
2023-04-21T01:46:28.612Z,1011.98
2023-04-21T01:47:28.472Z,1011.97
2023-04-21T01:48:28.506Z,1011.94
2023-04-21T01:49:28.455Z,1011.93
2023-04-21T01:50:28.474Z,1011.96
2023-04-21T01:51:28.413Z,1011.95
2023-04-21T01:52:28.427Z,1011.92
2023-04-21T01:53:28.472Z,1011.97
2023-04-21T01:54:28.408Z,1011.98
2023-04-21T01:55:28.393Z,1011.98
2023-04-21T01:56:28.395Z,1011.96
2023-04-21T01:57:28.365Z,1012.00
2023-04-21T01:58:28.461Z,1011.91
2023-04-21T01:59:28.345Z,1011.94
2023-04-21T02:00:28.333Z,1011.91
2023-04-21T02:01:28.357Z,1011.91
2023-04-21T02:02:28.392Z,1011.96
2023-04-21T02:03:28.552Z,1011.95
2023-04-21T02:04:28.335Z,1011.97
2023-04-21T02:05:28.287Z,1011.94
2023-04-21T02:06:28.273Z,1011.93
2023-04-21T02:07:28.253Z,1011.95
2023-04-21T02:08:28.313Z,1011.92
2023-04-21T02:09:28.238Z,1011.95
2023-04-21T02:10:28.216Z,1011.96
2023-04-21T02:11:28.232Z,1011.93
2023-04-21T02:12:28.207Z,1011.91
2023-04-21T02:13:28.223Z,1011.95
2023-04-21T02:14:28.187Z,1011.93
2023-04-21T02:15:28.215Z,1011.96
2023-04-21T02:16:28.191Z,1011.91
2023-04-21T02:17:28.157Z,1011.91
2023-04-21T02:18:28.184Z,1011.94
2023-04-21T02:19:28.148Z,1011.96
2023-04-21T02:20:28.116Z,1011.95
2023-04-21T02:21:28.195Z,1011.96
2023-04-21T02:22:28.108Z,1011.97
2023-04-21T02:23:28.123Z,1011.97
2023-04-21T02:24:28.069Z,1012.01
2023-04-21T02:25:28.071Z,1011.98
2023-04-21T02:26:28.051Z,1011.92
2023-04-21T02:27:28.035Z,1011.93
2023-04-21T02:28:28.059Z,1011.96
2023-04-21T02:29:28.012Z,1011.98
2023-04-21T02:30:27.995Z,1011.97
2023-04-21T02:31:28.025Z,1012.04
2023-04-21T02:32:28.131Z,1012.01
2023-04-21T02:33:28.006Z,1011.99
2023-04-21T02:34:27.970Z,1011.92
2023-04-21T02:35:27.930Z,1011.96
2023-04-21T02:36:27.923Z,1012.01
2023-04-21T02:37:27.955Z,1012.00
2023-04-21T02:38:27.917Z,1011.96
2023-04-21T02:39:27.897Z,1012.02
2023-04-21T02:40:27.906Z,1012.01
2023-04-21T02:41:27.860Z,1012.00
2023-04-21T02:42:27.919Z,1011.99
2023-04-21T02:43:27.846Z,1012.05
2023-04-21T02:44:27.829Z,1012.02
2023-04-21T02:45:27.825Z,1012.04
2023-04-21T02:46:27.920Z,1012.03
2023-04-21T02:47:27.920Z,1011.98
2023-04-21T02:48:27.796Z,1012.03
2023-04-21T02:49:27.766Z,1011.98
2023-04-21T02:50:27.757Z,1011.99
2023-04-21T02:51:27.760Z,1011.99
2023-04-21T02:52:27.796Z,1012.03
2023-04-21T02:53:27.730Z,1012.01
2023-04-21T02:54:27.727Z,1011.98
2023-04-21T02:55:27.743Z,1012.01
2023-04-21T02:56:27.689Z,1011.97
2023-04-21T02:57:27.693Z,1012.03
2023-04-21T02:58:27.713Z,1012.02
2023-04-21T02:59:27.672Z,1012.01
2023-04-21T03:00:27.683Z,1012.02
2023-04-21T03:01:27.784Z,1011.98
2023-04-21T03:02:27.882Z,1012.04
2023-04-21T03:03:27.882Z,1012.00
2023-04-21T03:04:27.727Z,1012.01
2023-04-21T03:05:27.601Z,1011.99
2023-04-21T03:06:27.593Z,1011.98
2023-04-21T03:07:27.585Z,1011.98
2023-04-21T03:08:27.608Z,1011.97
2023-04-21T03:09:27.552Z,1011.99
2023-04-21T03:10:27.553Z,1011.99
2023-04-21T03:11:27.585Z,1011.97
2023-04-21T03:12:42.379Z,1012.00
2023-04-21T03:13:27.587Z,1011.93
2023-04-21T03:14:27.503Z,1011.98
2023-04-21T03:15:27.495Z,1011.93
2023-04-21T03:16:27.528Z,1011.95
2023-04-21T03:17:27.474Z,1011.91
2023-04-21T03:18:27.478Z,1011.95
2023-04-21T03:19:27.438Z,1011.95
2023-04-21T03:20:27.451Z,1011.97
2023-04-21T03:21:27.421Z,1012.01
2023-04-21T03:22:27.394Z,1011.99
2023-04-21T03:23:27.445Z,1011.94
2023-04-21T03:24:27.381Z,1012.00
2023-04-21T03:25:27.384Z,1012.00
2023-04-21T03:26:27.363Z,1012.03
2023-04-21T03:27:27.345Z,1012.01
2023-04-21T03:28:27.398Z,1012.02
2023-04-21T03:29:27.327Z,1011.99
2023-04-21T03:30:27.310Z,1011.99
2023-04-21T03:31:27.350Z,1012.00
2023-04-21T03:32:27.326Z,1011.99
2023-04-21T03:33:27.334Z,1012.00
2023-04-21T03:34:27.263Z,1012.00
2023-04-21T03:35:27.286Z,1011.99
2023-04-21T03:36:27.253Z,1011.99
2023-04-21T03:37:27.255Z,1011.98
2023-04-21T03:38:27.265Z,1012.01
2023-04-21T03:39:27.229Z,1011.98
2023-04-21T03:40:27.206Z,1012.02
2023-04-21T03:41:27.189Z,1012.00
2023-04-21T03:42:27.168Z,1011.98
2023-04-21T03:43:27.224Z,1012.02
2023-04-21T03:44:27.176Z,1012.02
2023-04-21T03:45:27.152Z,1011.99
2023-04-21T03:46:27.259Z,1012.04
2023-04-21T03:47:27.145Z,1011.99
2023-04-21T03:48:27.130Z,1011.99
2023-04-21T03:49:27.105Z,1012.02
2023-04-21T03:50:27.088Z,1012.01
2023-04-21T03:51:27.082Z,1011.98
2023-04-21T03:52:27.101Z,1011.93
2023-04-21T03:53:27.066Z,1012.03
2023-04-21T03:54:27.039Z,1012.03
2023-04-21T03:55:27.029Z,1011.99
2023-04-21T03:56:27.028Z,1012.03
2023-04-21T03:57:27.063Z,1012.02
2023-04-21T03:58:26.998Z,1012.04
2023-04-21T03:59:26.998Z,1011.98
2023-04-21T04:00:26.966Z,1011.99
2023-04-21T04:01:26.959Z,1012.00
2023-04-21T04:02:27.100Z,1012.06
2023-04-21T04:03:27.155Z,1012.06
2023-04-21T04:04:27.124Z,1012.06
2023-04-21T04:05:26.995Z,1012.03
2023-04-21T04:06:26.926Z,1012.06
2023-04-21T04:07:26.945Z,1012.06
2023-04-21T04:08:26.871Z,1012.07
2023-04-21T04:09:26.868Z,1012.12
2023-04-21T04:10:26.863Z,1012.06
2023-04-21T04:11:26.844Z,1012.04
2023-04-21T04:12:26.881Z,1012.05
2023-04-21T04:13:26.825Z,1012.12
2023-04-21T04:14:26.805Z,1012.07
2023-04-21T04:15:26.801Z,1012.10
2023-04-21T04:16:26.845Z,1012.14
2023-04-21T04:17:26.868Z,1012.13
2023-04-21T04:18:26.757Z,1012.16
2023-04-21T04:19:26.773Z,1012.09
2023-04-21T04:20:26.759Z,1012.11
2023-04-21T04:21:26.747Z,1012.11
2023-04-21T04:22:26.767Z,1012.10
2023-04-21T04:23:26.733Z,1012.12
2023-04-21T04:24:26.728Z,1012.11
2023-04-21T04:25:26.691Z,1012.10
2023-04-21T04:26:26.668Z,1012.10
2023-04-21T04:27:26.712Z,1012.11
2023-04-21T04:28:26.656Z,1012.14
2023-04-21T04:29:26.643Z,1012.13
2023-04-21T04:30:26.646Z,1012.16
2023-04-21T04:31:26.657Z,1012.09
2023-04-21T04:32:26.704Z,1012.15
2023-04-21T04:33:26.600Z,1012.17
2023-04-21T04:34:26.582Z,1012.15
2023-04-21T04:35:26.591Z,1012.12
2023-04-21T04:36:26.570Z,1012.13
2023-04-21T04:37:26.601Z,1012.15
2023-04-21T04:38:26.559Z,1012.08
2023-04-21T04:39:26.561Z,1012.07
2023-04-21T04:40:26.543Z,1012.12
2023-04-21T04:41:26.543Z,1012.08
2023-04-21T04:42:26.551Z,1012.06
2023-04-21T04:43:26.513Z,1012.06
2023-04-21T04:44:26.481Z,1012.00
2023-04-21T04:45:26.454Z,1012.03
2023-04-21T04:46:26.507Z,1012.03
2023-04-21T04:47:26.618Z,1012.08
2023-04-21T04:48:26.456Z,1012.00
2023-04-21T04:49:26.440Z,1012.06
2023-04-21T04:50:26.410Z,1012.07
2023-04-21T04:51:26.394Z,1012.08
2023-04-21T04:52:26.416Z,1012.10
2023-04-21T04:53:26.441Z,1012.08
2023-04-21T04:54:26.370Z,1012.11
2023-04-21T04:55:26.373Z,1012.09
2023-04-21T04:56:26.329Z,1012.10
2023-04-21T04:57:26.335Z,1012.10
2023-04-21T04:58:26.368Z,1012.11
2023-04-21T04:59:27.441Z,1012.10
2023-04-21T05:00:26.283Z,1012.16
2023-04-21T05:01:26.328Z,1012.17
2023-04-21T05:02:26.379Z,1012.15
2023-04-21T05:03:26.480Z,1012.16
2023-04-21T05:04:26.718Z,1012.11
2023-04-21T05:05:26.228Z,1012.14
2023-04-21T05:06:26.206Z,1012.13
2023-04-21T05:07:26.224Z,1012.16
2023-04-21T05:08:26.239Z,1012.11
2023-04-21T05:09:26.203Z,1012.11
2023-04-21T05:10:26.173Z,1012.11
2023-04-21T05:11:26.178Z,1012.12
2023-04-21T05:12:26.163Z,1012.07
2023-04-21T05:13:26.190Z,1012.10
2023-04-21T05:14:26.117Z,1012.11
2023-04-21T05:15:26.109Z,1012.10
2023-04-21T05:16:26.168Z,1012.09
2023-04-21T05:17:26.137Z,1012.15
2023-04-21T05:18:26.143Z,1012.10
2023-04-21T05:19:26.074Z,1012.19
2023-04-21T05:20:26.070Z,1012.19
2023-04-21T05:21:26.066Z,1012.21
2023-04-21T05:22:26.036Z,1012.13
2023-04-21T05:23:26.076Z,1012.19
2023-04-21T05:24:26.028Z,1012.20
2023-04-21T05:25:25.988Z,1012.20
2023-04-21T05:26:26.012Z,1012.21
2023-04-21T05:27:25.978Z,1012.28
2023-04-21T05:28:26.013Z,1012.22
2023-04-21T05:29:25.956Z,1012.22
2023-04-21T05:30:25.968Z,1012.24
2023-04-21T05:31:25.998Z,1012.22
2023-04-21T05:32:26.077Z,1012.26
2023-04-21T05:33:25.974Z,1012.18
2023-04-21T05:34:25.883Z,1012.20
2023-04-21T05:35:25.904Z,1012.26
2023-04-21T05:36:25.889Z,1012.25
2023-04-21T05:37:25.926Z,1012.23
2023-04-21T05:38:25.913Z,1012.25
2023-04-21T05:39:25.840Z,1012.25
2023-04-21T05:40:25.842Z,1012.21
2023-04-21T05:41:25.827Z,1012.23
2023-04-21T05:42:25.800Z,1012.28
2023-04-21T05:43:25.824Z,1012.27
2023-04-21T05:44:25.805Z,1012.30
2023-04-21T05:45:25.770Z,1012.30
2023-04-21T05:46:25.779Z,1012.24
2023-04-21T05:47:25.827Z,1012.26
2023-04-21T05:48:25.809Z,1012.24
2023-04-21T05:49:25.746Z,1012.26
2023-04-21T05:50:25.772Z,1012.25
2023-04-21T05:51:25.727Z,1012.24
2023-04-21T05:52:25.710Z,1012.26
2023-04-21T05:53:25.749Z,1012.24
2023-04-21T05:54:25.690Z,1012.22
2023-04-21T05:55:25.660Z,1012.20
2023-04-21T05:56:25.670Z,1012.23
2023-04-21T05:57:25.641Z,1012.22
2023-04-21T05:58:25.658Z,1012.26
2023-04-21T05:59:25.623Z,1012.22
2023-04-21T06:00:25.647Z,1012.27
2023-04-21T06:01:25.605Z,1012.22
2023-04-21T06:02:25.871Z,1012.27
2023-04-21T06:03:25.763Z,1012.23
2023-04-21T06:04:25.852Z,1012.27
2023-04-21T06:05:25.590Z,1012.25
2023-04-21T06:06:25.535Z,1012.25
2023-04-21T06:07:25.542Z,1012.18
2023-04-21T06:08:25.538Z,1012.25
2023-04-21T06:09:25.489Z,1012.19
2023-04-21T06:10:25.472Z,1012.26
2023-04-21T06:11:25.469Z,1012.22
2023-04-21T06:12:25.489Z,1012.22
2023-04-21T06:13:25.500Z,1012.13
2023-04-21T06:14:25.437Z,1012.20
2023-04-21T06:15:25.453Z,1012.19
2023-04-21T06:16:25.465Z,1012.22
2023-04-21T06:17:25.528Z,1012.24
2023-04-21T06:18:25.425Z,1012.22
2023-04-21T06:19:25.383Z,1012.19
2023-04-21T06:20:25.398Z,1012.20
2023-04-21T06:21:25.380Z,1012.25
2023-04-21T06:22:25.360Z,1012.21
2023-04-21T06:23:25.409Z,1012.24
2023-04-21T06:24:25.731Z,1012.18
2023-04-21T06:25:25.332Z,1012.16
2023-04-21T06:26:25.292Z,1012.15
2023-04-21T06:27:25.347Z,1012.13
2023-04-21T06:28:25.324Z,1012.11
2023-04-21T06:29:25.275Z,1012.11
2023-04-21T06:30:25.256Z,1012.11
2023-04-21T06:31:25.274Z,1012.10
2023-04-21T06:32:25.312Z,1012.05
2023-04-21T06:33:25.225Z,1012.06
2023-04-21T06:34:25.264Z,1012.09
2023-04-21T06:35:25.192Z,1012.02
2023-04-21T06:36:25.159Z,1012.12
2023-04-21T06:37:25.212Z,1012.02
2023-04-21T06:38:25.140Z,1012.01
2023-04-21T06:39:25.166Z,1012.03
2023-04-21T06:40:25.126Z,1012.02
2023-04-21T06:41:25.114Z,1012.04
2023-04-21T06:42:25.142Z,1012.07
2023-04-21T06:43:25.095Z,1012.07
2023-04-21T06:44:25.095Z,1012.00
2023-04-21T06:45:25.053Z,1012.01
2023-04-21T06:46:25.134Z,1011.99
2023-04-21T06:47:25.213Z,1011.99
2023-04-21T06:48:25.062Z,1012.00
2023-04-21T06:49:25.020Z,1012.03
2023-04-21T06:50:25.025Z,1012.03
2023-04-21T06:51:25.018Z,1012.07
2023-04-21T06:52:25.057Z,1011.96
2023-04-21T06:53:25.001Z,1011.97
2023-04-21T06:54:24.987Z,1011.99
2023-04-21T06:55:24.973Z,1012.00
2023-04-21T06:56:24.962Z,1011.97
2023-04-21T06:57:24.996Z,1011.91
2023-04-21T06:58:24.944Z,1011.96
2023-04-21T06:59:24.937Z,1011.94
2023-04-21T07:00:24.919Z,1012.00
2023-04-21T07:01:24.941Z,1012.03
2023-04-21T07:02:25.067Z,1012.00
2023-04-21T07:03:24.972Z,1011.96
2023-04-21T07:04:24.943Z,1011.96
2023-04-21T07:05:24.826Z,1011.96
2023-04-21T07:06:24.850Z,1011.92
2023-04-21T07:07:24.885Z,1011.94
2023-04-21T07:08:24.831Z,1011.89
2023-04-21T07:09:24.792Z,1011.86
2023-04-21T07:10:24.802Z,1011.86
2023-04-21T07:11:24.769Z,1011.88
2023-04-21T07:12:24.856Z,1011.86
2023-04-21T07:13:24.762Z,1011.86
2023-04-21T07:14:24.754Z,1011.86
2023-04-21T07:15:24.775Z,1011.80
2023-04-21T07:16:24.785Z,1011.87
2023-04-21T07:17:24.764Z,1011.84
2023-04-21T07:18:24.713Z,1011.84
2023-04-21T07:19:24.692Z,1011.87
2023-04-21T07:20:24.681Z,1011.88
2023-04-21T07:21:24.656Z,1011.85
2023-04-21T07:22:24.709Z,1011.91
2023-04-21T07:23:24.639Z,1011.86
2023-04-21T07:24:24.658Z,1011.86
2023-04-21T07:25:24.641Z,1011.87
2023-04-21T07:26:24.664Z,1011.91
2023-04-21T07:27:24.646Z,1011.88
2023-04-21T07:28:24.606Z,1011.87
2023-04-21T07:29:24.615Z,1011.88
2023-04-21T07:30:24.565Z,1011.86
2023-04-21T07:31:24.579Z,1011.92
2023-04-21T07:32:24.672Z,1011.91
2023-04-21T07:33:24.527Z,1011.90
2023-04-21T07:34:24.550Z,1011.91
2023-04-21T07:35:24.501Z,1011.87
2023-04-21T07:36:24.515Z,1011.88
2023-04-21T07:37:24.968Z,1011.92
2023-04-21T07:38:24.482Z,1011.93
2023-04-21T07:39:24.473Z,1011.89
2023-04-21T07:40:24.494Z,1011.89
2023-04-21T07:41:24.515Z,1011.89
2023-04-21T07:42:24.504Z,1011.88
2023-04-21T07:43:24.459Z,1011.90
2023-04-21T07:44:24.488Z,1011.87
2023-04-21T07:45:24.399Z,1011.83
2023-04-21T07:46:24.427Z,1011.88
2023-04-21T07:47:24.515Z,1011.83
2023-04-21T07:48:24.335Z,1011.84
2023-04-21T07:49:24.335Z,1011.81
2023-04-21T07:50:24.400Z,1011.80
2023-04-21T07:51:24.307Z,1011.81
2023-04-21T07:52:24.389Z,1011.81
2023-04-21T07:53:24.305Z,1011.78
2023-04-21T07:54:24.318Z,1011.80
2023-04-21T07:55:24.281Z,1011.81
2023-04-21T07:56:24.275Z,1011.77
2023-04-21T07:57:24.341Z,1011.77
2023-04-21T07:58:24.297Z,1011.79
2023-04-21T07:59:24.239Z,1011.77
2023-04-21T08:00:24.240Z,1011.74
2023-04-21T08:01:24.197Z,1011.75
2023-04-21T08:02:24.382Z,1011.70
2023-04-21T08:03:24.768Z,1011.76
2023-04-21T08:04:24.579Z,1011.75
2023-04-21T08:05:25.303Z,1011.72
2023-04-21T08:06:24.168Z,1011.73
2023-04-21T08:07:24.211Z,1011.73
2023-04-21T08:08:24.136Z,1011.72
2023-04-21T08:09:24.086Z,1011.74
2023-04-21T08:10:24.155Z,1011.68
2023-04-21T08:11:24.106Z,1011.72
2023-04-21T08:12:24.152Z,1011.76
2023-04-21T08:13:24.076Z,1011.71
2023-04-21T08:14:24.084Z,1011.68
2023-04-21T08:15:24.027Z,1011.70
2023-04-21T08:16:24.067Z,1011.70
2023-04-21T08:17:24.127Z,1011.69
2023-04-21T08:18:24.093Z,1011.69
2023-04-21T08:19:24.012Z,1011.69
2023-04-21T08:20:24.001Z,1011.68
2023-04-21T08:21:23.996Z,1011.68
2023-04-21T08:22:24.745Z,1011.69
2023-04-21T08:23:23.963Z,1011.73
2023-04-21T08:24:24.005Z,1011.69
2023-04-21T08:25:23.954Z,1011.68
2023-04-21T08:26:23.935Z,1011.64
2023-04-21T08:27:23.884Z,1011.68
2023-04-21T08:28:23.967Z,1011.69
2023-04-21T08:29:23.883Z,1011.67
2023-04-21T08:30:23.915Z,1011.65
2023-04-21T08:31:23.964Z,1011.66
2023-04-21T08:32:23.841Z,1011.65
2023-04-21T08:33:23.873Z,1011.66
2023-04-21T08:34:26.542Z,1011.67
2023-04-21T08:35:23.817Z,1011.69
2023-04-21T08:36:29.438Z,1011.68
2023-04-21T08:37:24.794Z,1011.70
2023-04-21T08:38:23.847Z,1011.67
2023-04-21T08:39:23.759Z,1011.64
2023-04-21T08:40:23.750Z,1011.61
2023-04-21T08:41:23.737Z,1011.63
2023-04-21T08:42:23.774Z,1011.60
2023-04-21T08:43:23.768Z,1011.55
2023-04-21T08:44:23.725Z,1011.56
2023-04-21T08:45:23.676Z,1011.52
2023-04-21T08:46:23.799Z,1011.61
2023-04-21T08:47:23.691Z,1011.48
2023-04-21T08:48:23.729Z,1011.50
2023-04-21T08:49:23.670Z,1011.46
2023-04-21T08:50:23.697Z,1011.49
2023-04-21T08:51:23.644Z,1011.47
2023-04-21T08:52:23.620Z,1011.45
2023-04-21T08:53:23.629Z,1011.41
2023-04-21T08:54:23.587Z,1011.45
2023-04-21T08:55:23.577Z,1011.51
2023-04-21T08:56:23.604Z,1011.45
2023-04-21T08:57:23.578Z,1011.45
2023-04-21T08:58:23.613Z,1011.44
2023-04-21T08:59:23.545Z,1011.44
2023-04-21T09:00:23.520Z,1011.43
2023-04-21T09:01:23.562Z,1011.52
2023-04-21T09:02:23.660Z,1011.54
2023-04-21T09:03:25.928Z,1011.45
2023-04-21T09:04:23.736Z,1011.48
2023-04-21T09:05:23.739Z,1011.51
2023-04-21T09:06:23.616Z,1011.48
2023-04-21T09:07:23.422Z,1011.51
2023-04-21T09:08:23.489Z,1011.50
2023-04-21T09:09:23.419Z,1011.54
2023-04-21T09:10:23.419Z,1011.49
2023-04-21T09:11:23.406Z,1011.53
2023-04-21T09:12:23.420Z,1011.47
2023-04-21T09:13:23.429Z,1011.44
2023-04-21T09:14:23.365Z,1011.46
2023-04-21T09:15:23.391Z,1011.40
2023-04-21T09:16:23.341Z,1011.46
2023-04-21T09:17:23.552Z,1011.44
2023-04-21T09:18:23.414Z,1011.44
2023-04-21T09:19:23.322Z,1011.45
2023-04-21T09:20:23.332Z,1011.39
2023-04-21T09:21:23.295Z,1011.38
2023-04-21T09:22:23.303Z,1011.44
2023-04-21T09:23:23.352Z,1011.43
2023-04-21T09:24:23.267Z,1011.43
2023-04-21T09:25:23.266Z,1011.41
2023-04-21T09:26:23.438Z,1011.41
2023-04-21T09:27:23.246Z,1011.46
2023-04-21T09:28:23.310Z,1011.39
2023-04-21T09:29:23.194Z,1011.40
2023-04-21T09:30:23.192Z,1011.46
2023-04-21T09:31:23.252Z,1011.43
2023-04-21T09:32:23.232Z,1011.43
2023-04-21T09:33:29.616Z,1011.43
2023-04-21T09:34:24.145Z,1011.42
2023-04-21T09:35:23.109Z,1011.41
2023-04-21T09:36:23.143Z,1011.40
2023-04-21T09:37:23.094Z,1011.37
2023-04-21T09:38:23.149Z,1011.37
2023-04-21T09:39:38.298Z,1011.38
2023-04-21T09:40:24.094Z,1011.39
2023-04-21T09:41:23.081Z,1011.39
2023-04-21T09:42:23.067Z,1011.39
2023-04-21T09:43:23.121Z,1011.38
2023-04-21T09:44:23.739Z,1011.36
2023-04-21T09:45:36.985Z,1011.34
2023-04-21T09:46:24.699Z,1011.28
2023-04-21T09:47:23.112Z,1011.35
2023-04-21T09:48:23.092Z,1011.31
2023-04-21T09:49:23.027Z,1011.33
2023-04-21T09:50:54.294Z,1011.31
2023-04-21T09:51:37.381Z,1011.28
2023-04-21T09:52:23.973Z,1011.29
2023-04-21T09:53:22.972Z,1011.27
2023-04-21T09:55:22.929Z,1011.28
2023-04-21T09:56:22.916Z,1011.29
2023-04-21T09:57:22.874Z,1011.27
2023-04-21T09:58:22.950Z,1011.28
2023-04-21T09:59:23.707Z,1011.24
2023-04-21T10:00:22.842Z,1011.15
2023-04-21T10:01:22.885Z,1011.17
2023-04-21T10:02:23.091Z,1011.22
2023-04-21T10:03:22.994Z,1011.18
2023-04-21T10:04:23.371Z,1011.24
2023-04-21T10:05:22.858Z,1011.12
2023-04-21T10:06:22.778Z,1011.09
2023-04-21T10:07:22.768Z,1011.10
2023-04-21T10:08:22.820Z,1011.10
2023-04-21T10:09:22.804Z,1011.09
2023-04-21T10:10:22.769Z,1011.12
2023-04-21T10:11:22.704Z,1011.11
2023-04-21T10:12:22.698Z,1011.03
2023-04-21T10:13:22.763Z,1011.03
2023-04-21T10:14:22.973Z,1011.08
2023-04-21T10:15:22.666Z,1011.08
2023-04-21T10:16:22.764Z,1011.08
2023-04-21T10:17:22.673Z,1011.09
2023-04-21T10:18:22.711Z,1011.08
2023-04-21T10:19:22.655Z,1011.03
2023-04-21T10:20:22.703Z,1011.01
2023-04-21T10:21:22.636Z,1011.01
2023-04-21T10:22:22.612Z,1010.99
2023-04-21T10:23:22.653Z,1011.01
2023-04-21T10:24:22.627Z,1011.01
2023-04-21T10:25:22.576Z,1010.94
2023-04-21T10:26:22.547Z,1011.06
2023-04-21T10:27:22.541Z,1010.98
2023-04-21T10:28:22.583Z,1010.95
2023-04-21T10:29:22.525Z,1010.89
2023-04-21T10:30:22.528Z,1010.87
2023-04-21T10:31:22.535Z,1010.89
2023-04-21T10:32:22.526Z,1010.85
2023-04-21T10:33:22.555Z,1010.87
2023-04-21T10:34:22.765Z,1010.89
2023-04-21T10:35:22.486Z,1010.85
2023-04-21T10:36:22.449Z,1010.85
2023-04-21T10:37:22.434Z,1010.81
2023-04-21T10:38:22.487Z,1010.78
2023-04-21T10:39:22.473Z,1010.77
2023-04-21T10:40:32.989Z,1010.86
2023-04-21T10:41:23.412Z,1010.72
2023-04-21T10:42:22.395Z,1010.74
2023-04-21T10:43:22.478Z,1010.78
2023-04-21T10:44:22.601Z,1010.79
2023-04-21T10:45:22.406Z,1010.76
2023-04-21T10:46:22.396Z,1010.69
2023-04-21T10:47:22.386Z,1010.71
2023-04-21T10:48:22.450Z,1010.66
2023-04-21T10:49:22.307Z,1010.68
2023-04-21T10:50:22.281Z,1010.62
2023-04-21T10:51:22.293Z,1010.62
2023-04-21T10:52:22.307Z,1010.62
2023-04-21T10:53:22.335Z,1010.54
2023-04-21T10:54:22.425Z,1010.68
2023-04-21T10:55:22.234Z,1010.66
2023-04-21T10:56:22.224Z,1010.49
2023-04-21T10:57:22.225Z,1010.46
2023-04-21T10:58:22.276Z,1010.67
2023-04-21T10:59:22.162Z,1010.48
2023-04-21T11:00:22.202Z,1010.57
2023-04-21T11:01:22.214Z,1010.54
2023-04-21T11:02:22.380Z,1010.59
2023-04-21T11:03:22.405Z,1010.51
2023-04-21T11:04:23.174Z,1010.50
2023-04-21T11:05:22.098Z,1010.61
2023-04-21T11:06:22.113Z,1010.56
2023-04-21T11:07:22.121Z,1010.51
2023-04-21T11:08:22.352Z,1010.53
2023-04-21T11:09:22.080Z,1010.40
2023-04-21T11:10:22.058Z,1010.52
2023-04-21T11:11:22.032Z,1010.46
2023-04-21T11:12:22.057Z,1010.55
2023-04-21T11:13:22.109Z,1010.40
2023-04-21T11:14:22.155Z,1010.51
2023-04-21T11:15:22.045Z,1010.23
2023-04-21T11:16:22.116Z,1010.30
2023-04-21T11:17:22.033Z,1010.34
2023-04-21T11:18:22.051Z,1010.46
2023-04-21T11:19:22.056Z,1010.30
2023-04-21T11:20:22.012Z,1010.47
2023-04-21T11:21:22.131Z,1010.41
2023-04-21T11:22:21.937Z,1010.45
2023-04-21T11:23:22.032Z,1010.40
2023-04-21T11:24:22.044Z,1010.47
2023-04-21T11:25:21.998Z,1010.39
2023-04-21T11:26:21.977Z,1010.44
2023-04-21T11:27:21.867Z,1010.40
2023-04-21T11:28:21.909Z,1010.35
2023-04-21T11:29:21.875Z,1010.35
2023-04-21T11:30:21.869Z,1010.30
2023-04-21T11:31:21.912Z,1010.33
2023-04-21T11:32:21.832Z,1010.34
2023-04-21T11:33:21.946Z,1010.12
2023-04-21T11:34:22.087Z,1010.39
2023-04-21T11:35:21.769Z,1010.25
2023-04-21T11:36:21.765Z,1010.25
2023-04-21T11:37:21.759Z,1010.32
2023-04-21T11:38:21.818Z,1010.32
2023-04-21T11:39:22.358Z,1010.27
2023-04-21T11:40:21.755Z,1010.22
2023-04-21T11:41:21.745Z,1010.25
2023-04-21T11:42:21.737Z,1010.23
2023-04-21T11:43:21.767Z,1010.26
2023-04-21T11:44:21.721Z,1010.26
2023-04-21T11:45:22.692Z,1010.36
2023-04-21T11:46:21.720Z,1010.24
2023-04-21T11:47:21.700Z,1010.31
2023-04-21T11:48:21.719Z,1010.28
2023-04-21T11:49:21.626Z,1010.20
2023-04-21T11:50:21.618Z,1010.21
2023-04-21T11:51:22.463Z,1010.17
2023-04-21T11:52:21.595Z,1010.16
2023-04-21T11:53:21.635Z,1010.18
2023-04-21T11:54:21.556Z,1010.20
2023-04-21T11:55:21.606Z,1010.28
2023-04-21T11:56:21.544Z,1010.16
2023-04-21T11:57:21.518Z,1010.07
2023-04-21T11:58:21.596Z,1010.21
2023-04-21T11:59:22.647Z,1010.17
2023-04-21T12:00:21.496Z,1010.05
2023-04-21T12:01:21.494Z,1010.17
2023-04-21T12:02:21.557Z,1010.23
2023-04-21T12:03:21.768Z,1010.14
2023-04-21T12:04:21.565Z,1010.21
2023-04-21T12:05:21.489Z,1010.27
2023-04-21T12:06:21.480Z,1010.17